sensor_id;sensor_type;location;lat;lon;timestamp;P1;durP1;ratioP1;P2;durP2;ratioP2
64022;SDS011;50264;52.088;5.296;2022-12-18T00:01:00;71.2;;;40.81;;
64022;SDS011;50264;52.088;5.296;2022-12-18T00:02:36;76.8;;;42.7;;
64022;SDS011;50264;52.088;5.296;2022-12-18T00:04:14;76.3;;;41.8;;
64022;SDS011;50264;52.088;5.296;2022-12-18T00:05:58;73.11;;;40.81;;
64022;SDS011;50264;52.088;5.296;2022-12-18T00:09:12;68.7;;;40.6;;
64022;SDS011;50264;52.088;5.296;2022-12-18T00:10:48;68.41;;;40.6;;
64022;SDS011;50264;52.088;5.296;2022-12-18T00:12:24;78.91;;;42.6;;
64022;SDS011;50264;52.088;5.296;2022-12-18T00:15:36;72.11;;;39.9;;
64022;SDS011;50264;52.088;5.296;2022-12-18T00:17:14;75.3;;;40.81;;
64022;SDS011;50264;52.088;5.296;2022-12-18T00:18:52;71.3;;;39.4;;
64022;SDS011;50264;52.088;5.296;2022-12-18T00:22:12;71.3;;;39.4;;
64022;SDS011;50264;52.088;5.296;2022-12-18T00:23:50;79.3;;;41.4;;
64022;SDS011;50264;52.088;5.296;2022-12-18T00:25:26;73.8;;;41.0;;
64022;SDS011;50264;52.088;5.296;2022-12-18T00:27:03;67.41;;;39.71;;
64022;SDS011;50264;52.088;5.296;2022-12-18T00:30:15;74.5;;;40.21;;
64022;SDS011;50264;52.088;5.296;2022-12-18T00:31:52;77.8;;;39.5;;
64022;SDS011;50264;52.088;5.296;2022-12-18T00:33:28;70.3;;;41.0;;
64022;SDS011;50264;52.088;5.296;2022-12-18T00:35:06;70.7;;;40.1;;
64022;SDS011;50264;52.088;5.296;2022-12-18T00:38:19;80.2;;;40.31;;
64022;SDS011;50264;52.088;5.296;2022-12-18T00:39:55;76.8;;;41.0;;
64022;SDS011;50264;52.088;5.296;2022-12-18T00:41:31;73.3;;;38.5;;
64022;SDS011;50264;52.088;5.296;2022-12-18T00:44:44;80.91;;;42.4;;
64022;SDS011;50264;52.088;5.296;2022-12-18T00:46:21;80.61;;;42.2;;
64022;SDS011;50264;52.088;5.296;2022-12-18T00:47:57;78.11;;;41.7;;
64022;SDS011;50264;52.088;5.296;2022-12-18T00:51:09;74.5;;;40.9;;
64022;SDS011;50264;52.088;5.296;2022-12-18T00:52:45;73.11;;;40.5;;
64022;SDS011;50264;52.088;5.296;2022-12-18T00:54:22;69.5;;;40.81;;
64022;SDS011;50264;52.088;5.296;2022-12-18T00:57:35;74.8;;;42.3;;
64022;SDS011;50264;52.088;5.296;2022-12-18T00:59:11;77.7;;;41.1;;
64022;SDS011;50264;52.088;5.296;2022-12-18T01:00:47;77.11;;;41.0;;
64022;SDS011;50264;52.088;5.296;2022-12-18T01:02:24;69.11;;;40.31;;
64022;SDS011;50264;52.088;5.296;2022-12-18T01:05:38;75.91;;;40.71;;
64022;SDS011;50264;52.088;5.296;2022-12-18T01:07:15;77.11;;;42.0;;
64022;SDS011;50264;52.088;5.296;2022-12-18T01:08:51;64.5;;;38.4;;
64022;SDS011;50264;52.088;5.296;2022-12-18T01:12:04;68.3;;;41.0;;
64022;SDS011;50264;52.088;5.296;2022-12-18T01:13:41;83.6;;;41.5;;
64022;SDS011;50264;52.088;5.296;2022-12-18T01:15:18;72.41;;;40.31;;
64022;SDS011;50264;52.088;5.296;2022-12-18T01:18:31;79.91;;;42.0;;
64022;SDS011;50264;52.088;5.296;2022-12-18T01:20:08;74.91;;;40.31;;
64022;SDS011;50264;52.088;5.296;2022-12-18T01:21:47;77.91;;;41.4;;
64022;SDS011;50264;52.088;5.296;2022-12-18T01:23:26;78.3;;;41.2;;
64022;SDS011;50264;52.088;5.296;2022-12-18T01:26:40;76.91;;;42.3;;
64022;SDS011;50264;52.088;5.296;2022-12-18T01:28:16;74.0;;;42.8;;
64022;SDS011;50264;52.088;5.296;2022-12-18T01:29:53;75.11;;;42.4;;
64022;SDS011;50264;52.088;5.296;2022-12-18T01:33:09;74.11;;;40.6;;
64022;SDS011;50264;52.088;5.296;2022-12-18T01:34:45;72.5;;;39.81;;
64022;SDS011;50264;52.088;5.296;2022-12-18T01:36:23;74.11;;;41.8;;
64022;SDS011;50264;52.088;5.296;2022-12-18T01:38:00;73.0;;;39.5;;
64022;SDS011;50264;52.088;5.296;2022-12-18T01:41:13;70.91;;;39.71;;
64022;SDS011;50264;52.088;5.296;2022-12-18T01:42:55;75.41;;;40.0;;
64022;SDS011;50264;52.088;5.296;2022-12-18T01:44:51;75.0;;;40.4;;
64022;SDS011;50264;52.088;5.296;2022-12-18T01:46:56;79.7;;;40.9;;
64022;SDS011;50264;52.088;5.296;2022-12-18T01:48:33;70.7;;;40.5;;
64022;SDS011;50264;52.088;5.296;2022-12-18T01:51:50;72.0;;;40.5;;
64022;SDS011;50264;52.088;5.296;2022-12-18T01:53:27;69.41;;;40.1;;
64022;SDS011;50264;52.088;5.296;2022-12-18T01:56:42;79.3;;;37.9;;
64022;SDS011;50264;52.088;5.296;2022-12-18T02:00:00;68.7;;;38.71;;
64022;SDS011;50264;52.088;5.296;2022-12-18T02:01:43;62.3;;;37.1;;
64022;SDS011;50264;52.088;5.296;2022-12-18T02:03:19;72.0;;;38.5;;
64022;SDS011;50264;52.088;5.296;2022-12-18T02:06:33;69.11;;;37.0;;
64022;SDS011;50264;52.088;5.296;2022-12-18T02:08:16;68.1;;;36.81;;
64022;SDS011;50264;52.088;5.296;2022-12-18T02:10:02;70.5;;;38.9;;
64022;SDS011;50264;52.088;5.296;2022-12-18T02:11:47;64.6;;;36.71;;
64022;SDS011;50264;52.088;5.296;2022-12-18T02:13:31;69.8;;;37.4;;
64022;SDS011;50264;52.088;5.296;2022-12-18T02:17:03;67.2;;;37.9;;
64022;SDS011;50264;52.088;5.296;2022-12-18T02:18:47;66.1;;;35.71;;
64022;SDS011;50264;52.088;5.296;2022-12-18T02:20:31;71.8;;;35.81;;
64022;SDS011;50264;52.088;5.296;2022-12-18T02:22:16;62.7;;;37.6;;
64022;SDS011;50264;52.088;5.296;2022-12-18T02:24:10;71.8;;;38.4;;
64022;SDS011;50264;52.088;5.296;2022-12-18T02:26:02;70.3;;;37.21;;
64022;SDS011;50264;52.088;5.296;2022-12-18T02:29:27;68.7;;;37.71;;
64022;SDS011;50264;52.088;5.296;2022-12-18T02:31:09;73.61;;;37.31;;
64022;SDS011;50264;52.088;5.296;2022-12-18T02:32:52;57.8;;;36.4;;
64022;SDS011;50264;52.088;5.296;2022-12-18T02:34:31;67.8;;;36.1;;
64022;SDS011;50264;52.088;5.296;2022-12-18T02:37:52;63.7;;;34.9;;
64022;SDS011;50264;52.088;5.296;2022-12-18T02:39:29;60.4;;;35.31;;
64022;SDS011;50264;52.088;5.296;2022-12-18T02:41:08;66.41;;;35.81;;
64022;SDS011;50264;52.088;5.296;2022-12-18T02:42:45;63.2;;;34.5;;
64022;SDS011;50264;52.088;5.296;2022-12-18T02:45:58;63.1;;;35.4;;
64022;SDS011;50264;52.088;5.296;2022-12-18T02:47:56;68.61;;;35.21;;
64022;SDS011;50264;52.088;5.296;2022-12-18T02:49:34;68.0;;;36.9;;
64022;SDS011;50264;52.088;5.296;2022-12-18T02:51:21;63.3;;;35.5;;
64022;SDS011;50264;52.088;5.296;2022-12-18T02:54:55;62.7;;;36.0;;
64022;SDS011;50264;52.088;5.296;2022-12-18T02:56:41;66.41;;;36.1;;
64022;SDS011;50264;52.088;5.296;2022-12-18T02:58:26;63.3;;;36.0;;
64022;SDS011;50264;52.088;5.296;2022-12-18T03:00:10;65.7;;;34.9;;
64022;SDS011;50264;52.088;5.296;2022-12-18T03:01:51;61.6;;;35.21;;
64022;SDS011;50264;52.088;5.296;2022-12-18T03:05:16;59.1;;;33.71;;
64022;SDS011;50264;52.088;5.296;2022-12-18T03:07:00;70.0;;;35.6;;
64022;SDS011;50264;52.088;5.296;2022-12-18T03:08:42;64.91;;;34.21;;
64022;SDS011;50264;52.088;5.296;2022-12-18T03:10:23;63.8;;;35.0;;
64022;SDS011;50264;52.088;5.296;2022-12-18T03:12:06;65.7;;;35.1;;
64022;SDS011;50264;52.088;5.296;2022-12-18T03:15:34;59.6;;;32.6;;
64022;SDS011;50264;52.088;5.296;2022-12-18T03:17:14;63.1;;;35.6;;
64022;SDS011;50264;52.088;5.296;2022-12-18T03:18:56;68.61;;;34.1;;
64022;SDS011;50264;52.088;5.296;2022-12-18T03:20:37;63.7;;;35.1;;
64022;SDS011;50264;52.088;5.296;2022-12-18T03:23:59;68.2;;;35.6;;
64022;SDS011;50264;52.088;5.296;2022-12-18T03:25:39;69.0;;;32.71;;
64022;SDS011;50264;52.088;5.296;2022-12-18T03:27:18;60.9;;;33.4;;
64022;SDS011;50264;52.088;5.296;2022-12-18T03:28:59;63.6;;;33.21;;
64022;SDS011;50264;52.088;5.296;2022-12-18T03:32:23;60.5;;;33.21;;
64022;SDS011;50264;52.088;5.296;2022-12-18T03:34:04;60.4;;;33.0;;
64022;SDS011;50264;52.088;5.296;2022-12-18T03:35:48;62.6;;;34.9;;
64022;SDS011;50264;52.088;5.296;2022-12-18T03:37:25;63.7;;;32.3;;
64022;SDS011;50264;52.088;5.296;2022-12-18T03:40:50;63.5;;;33.8;;
64022;SDS011;50264;52.088;5.296;2022-12-18T03:42:37;65.7;;;34.5;;
64022;SDS011;50264;52.088;5.296;2022-12-18T03:44:23;66.7;;;33.21;;
64022;SDS011;50264;52.088;5.296;2022-12-18T03:46:08;63.5;;;32.5;;
64022;SDS011;50264;52.088;5.296;2022-12-18T03:47:53;61.0;;;33.21;;
64022;SDS011;50264;52.088;5.296;2022-12-18T03:51:23;64.91;;;33.3;;
64022;SDS011;50264;52.088;5.296;2022-12-18T03:53:08;67.5;;;34.1;;
64022;SDS011;50264;52.088;5.296;2022-12-18T03:54:55;63.6;;;31.8;;
64022;SDS011;50264;52.088;5.296;2022-12-18T03:56:35;56.1;;;31.0;;
64022;SDS011;50264;52.088;5.296;2022-12-18T03:58:17;62.6;;;31.2;;
64022;SDS011;50264;52.088;5.296;2022-12-18T04:01:38;56.7;;;31.5;;
64022;SDS011;50264;52.088;5.296;2022-12-18T04:03:18;52.1;;;30.6;;
64022;SDS011;50264;52.088;5.296;2022-12-18T04:04:57;56.4;;;31.1;;
64022;SDS011;50264;52.088;5.296;2022-12-18T04:06:38;56.4;;;31.1;;
64022;SDS011;50264;52.088;5.296;2022-12-18T04:09:52;58.7;;;33.21;;
64022;SDS011;50264;52.088;5.296;2022-12-18T04:11:32;55.3;;;30.8;;
64022;SDS011;50264;52.088;5.296;2022-12-18T04:13:08;55.6;;;32.71;;
64022;SDS011;50264;52.088;5.296;2022-12-18T04:14:44;62.6;;;30.9;;
64022;SDS011;50264;52.088;5.296;2022-12-18T04:17:57;54.0;;;32.0;;
64022;SDS011;50264;52.088;5.296;2022-12-18T04:19:33;54.8;;;30.5;;
64022;SDS011;50264;52.088;5.296;2022-12-18T04:21:09;51.7;;;30.2;;
64022;SDS011;50264;52.088;5.296;2022-12-18T04:24:24;55.0;;;31.0;;
64022;SDS011;50264;52.088;5.296;2022-12-18T04:26:00;59.2;;;33.4;;
64022;SDS011;50264;52.088;5.296;2022-12-18T04:27:36;53.3;;;29.9;;
64022;SDS011;50264;52.088;5.296;2022-12-18T04:30:48;58.0;;;32.71;;
64022;SDS011;50264;52.088;5.296;2022-12-18T04:32:24;54.4;;;31.1;;
64022;SDS011;50264;52.088;5.296;2022-12-18T04:34:01;55.9;;;31.4;;
64022;SDS011;50264;52.088;5.296;2022-12-18T04:37:13;54.7;;;29.7;;
64022;SDS011;50264;52.088;5.296;2022-12-18T04:38:49;54.9;;;30.1;;
64022;SDS011;50264;52.088;5.296;2022-12-18T04:40:25;48.3;;;29.5;;
64022;SDS011;50264;52.088;5.296;2022-12-18T04:42:01;57.6;;;29.9;;
64022;SDS011;50264;52.088;5.296;2022-12-18T04:45:14;50.0;;;28.2;;
64022;SDS011;50264;52.088;5.296;2022-12-18T04:46:50;49.8;;;27.2;;
64022;SDS011;50264;52.088;5.296;2022-12-18T04:48:26;59.8;;;30.2;;
64022;SDS011;50264;52.088;5.296;2022-12-18T04:51:40;52.4;;;29.2;;
64022;SDS011;50264;52.088;5.296;2022-12-18T04:53:16;47.6;;;28.6;;
64022;SDS011;50264;52.088;5.296;2022-12-18T04:54:52;53.9;;;27.7;;
64022;SDS011;50264;52.088;5.296;2022-12-18T04:58:07;52.8;;;27.7;;
64022;SDS011;50264;52.088;5.296;2022-12-18T04:59:43;50.0;;;26.9;;
64022;SDS011;50264;52.088;5.296;2022-12-18T05:01:19;48.9;;;28.9;;
64022;SDS011;50264;52.088;5.296;2022-12-18T05:02:55;50.0;;;27.6;;
64022;SDS011;50264;52.088;5.296;2022-12-18T05:06:08;46.9;;;27.5;;
64022;SDS011;50264;52.088;5.296;2022-12-18T05:07:45;52.9;;;27.9;;
64022;SDS011;50264;52.088;5.296;2022-12-18T05:09:21;47.2;;;27.3;;
64022;SDS011;50264;52.088;5.296;2022-12-18T05:12:36;47.9;;;27.6;;
64022;SDS011;50264;52.088;5.296;2022-12-18T05:14:13;50.6;;;27.4;;
64022;SDS011;50264;52.088;5.296;2022-12-18T05:15:51;45.8;;;27.2;;
64022;SDS011;50264;52.088;5.296;2022-12-18T05:19:04;50.2;;;26.2;;
64022;SDS011;50264;52.088;5.296;2022-12-18T05:20:40;39.81;;;24.3;;
64022;SDS011;50264;52.088;5.296;2022-12-18T05:22:17;42.0;;;24.8;;
64022;SDS011;50264;52.088;5.296;2022-12-18T05:23:53;50.8;;;24.6;;
64022;SDS011;50264;52.088;5.296;2022-12-18T05:27:05;41.9;;;24.3;;
64022;SDS011;50264;52.088;5.296;2022-12-18T05:28:41;41.6;;;24.2;;
64022;SDS011;50264;52.088;5.296;2022-12-18T05:30:18;45.1;;;25.9;;
64022;SDS011;50264;52.088;5.296;2022-12-18T05:33:31;42.9;;;23.9;;
64022;SDS011;50264;52.088;5.296;2022-12-18T05:35:10;41.7;;;24.4;;
64022;SDS011;50264;52.088;5.296;2022-12-18T05:36:47;50.2;;;25.8;;
64022;SDS011;50264;52.088;5.296;2022-12-18T05:40:02;54.2;;;25.9;;
64022;SDS011;50264;52.088;5.296;2022-12-18T05:41:40;44.6;;;24.8;;
64022;SDS011;50264;52.088;5.296;2022-12-18T05:43:16;42.2;;;23.9;;
64022;SDS011;50264;52.088;5.296;2022-12-18T05:44:53;41.9;;;25.3;;
64022;SDS011;50264;52.088;5.296;2022-12-18T05:48:06;37.1;;;23.9;;
64022;SDS011;50264;52.088;5.296;2022-12-18T05:49:43;42.4;;;23.5;;
64022;SDS011;50264;52.088;5.296;2022-12-18T05:51:20;43.1;;;24.0;;
64022;SDS011;50264;52.088;5.296;2022-12-18T05:54:33;47.4;;;24.0;;
64022;SDS011;50264;52.088;5.296;2022-12-18T05:56:10;48.2;;;23.7;;
64022;SDS011;50264;52.088;5.296;2022-12-18T05:57:50;36.0;;;22.6;;
64022;SDS011;50264;52.088;5.296;2022-12-18T05:59:26;38.1;;;22.3;;
64022;SDS011;50264;52.088;5.296;2022-12-18T06:02:46;37.6;;;22.2;;
64022;SDS011;50264;52.088;5.296;2022-12-18T06:04:23;39.0;;;22.0;;
64022;SDS011;50264;52.088;5.296;2022-12-18T06:05:59;37.81;;;22.9;;
64022;SDS011;50264;52.088;5.296;2022-12-18T06:09:11;35.1;;;21.5;;
64022;SDS011;50264;52.088;5.296;2022-12-18T06:10:49;41.2;;;22.0;;
64022;SDS011;50264;52.088;5.296;2022-12-18T06:12:27;39.4;;;22.0;;
64022;SDS011;50264;52.088;5.296;2022-12-18T06:14:03;33.71;;;20.3;;
64022;SDS011;50264;52.088;5.296;2022-12-18T06:17:17;34.1;;;20.9;;
64022;SDS011;50264;52.088;5.296;2022-12-18T06:20:32;35.4;;;19.11;;
64022;SDS011;50264;52.088;5.296;2022-12-18T06:23:44;31.3;;;19.8;;
64022;SDS011;50264;52.088;5.296;2022-12-18T06:25:20;33.21;;;20.3;;
64022;SDS011;50264;52.088;5.296;2022-12-18T06:26:56;32.71;;;20.3;;
64022;SDS011;50264;52.088;5.296;2022-12-18T06:30:09;30.2;;;20.11;;
64022;SDS011;50264;52.088;5.296;2022-12-18T06:31:46;38.4;;;20.3;;
64022;SDS011;50264;52.088;5.296;2022-12-18T06:33:25;33.0;;;19.91;;
64022;SDS011;50264;52.088;5.296;2022-12-18T06:35:02;34.1;;;20.41;;
64022;SDS011;50264;52.088;5.296;2022-12-18T06:38:16;31.6;;;19.2;;
64022;SDS011;50264;52.088;5.296;2022-12-18T06:39:52;36.9;;;19.5;;
64022;SDS011;50264;52.088;5.296;2022-12-18T06:41:28;24.2;;;17.61;;
64022;SDS011;50264;52.088;5.296;2022-12-18T06:44:41;28.7;;;18.91;;
64022;SDS011;50264;52.088;5.296;2022-12-18T06:46:18;32.0;;;18.8;;
64022;SDS011;50264;52.088;5.296;2022-12-18T06:47:55;32.71;;;19.2;;
64022;SDS011;50264;52.088;5.296;2022-12-18T06:51:07;32.71;;;19.3;;
64022;SDS011;50264;52.088;5.296;2022-12-18T06:52:43;35.9;;;19.91;;
64022;SDS011;50264;52.088;5.296;2022-12-18T06:54:20;33.0;;;18.91;;
64022;SDS011;50264;52.088;5.296;2022-12-18T06:55:59;32.8;;;18.5;;
64022;SDS011;50264;52.088;5.296;2022-12-18T06:59:13;27.0;;;17.91;;
64022;SDS011;50264;52.088;5.296;2022-12-18T07:00:50;30.2;;;18.5;;
64022;SDS011;50264;52.088;5.296;2022-12-18T07:02:27;28.1;;;19.61;;
64022;SDS011;50264;52.088;5.296;2022-12-18T07:05:39;30.5;;;18.8;;
64022;SDS011;50264;52.088;5.296;2022-12-18T07:07:16;29.1;;;18.91;;
64022;SDS011;50264;52.088;5.296;2022-12-18T07:08:53;36.0;;;18.7;;
64022;SDS011;50264;52.088;5.296;2022-12-18T07:10:30;28.3;;;17.7;;
64022;SDS011;50264;52.088;5.296;2022-12-18T07:13:43;26.4;;;17.3;;
64022;SDS011;50264;52.088;5.296;2022-12-18T07:15:20;27.3;;;16.8;;
64022;SDS011;50264;52.088;5.296;2022-12-18T07:16:56;23.6;;;16.61;;
64022;SDS011;50264;52.088;5.296;2022-12-18T07:20:09;23.4;;;15.9;;
64022;SDS011;50264;52.088;5.296;2022-12-18T07:21:46;21.7;;;14.7;;
64022;SDS011;50264;52.088;5.296;2022-12-18T07:23:22;30.4;;;16.0;;
64022;SDS011;50264;52.088;5.296;2022-12-18T07:26:34;23.1;;;15.3;;
64022;SDS011;50264;52.088;5.296;2022-12-18T07:28:11;28.7;;;16.2;;
64022;SDS011;50264;52.088;5.296;2022-12-18T07:29:47;25.1;;;15.8;;
64022;SDS011;50264;52.088;5.296;2022-12-18T07:31:23;24.2;;;15.6;;
64022;SDS011;50264;52.088;5.296;2022-12-18T07:34:36;32.0;;;15.9;;
64022;SDS011;50264;52.088;5.296;2022-12-18T07:36:13;29.3;;;15.8;;
64022;SDS011;50264;52.088;5.296;2022-12-18T07:37:50;29.0;;;17.0;;
64022;SDS011;50264;52.088;5.296;2022-12-18T07:41:02;26.5;;;16.5;;
64022;SDS011;50264;52.088;5.296;2022-12-18T07:42:40;24.5;;;16.7;;
64022;SDS011;50264;52.088;5.296;2022-12-18T07:44:17;23.5;;;16.3;;
64022;SDS011;50264;52.088;5.296;2022-12-18T07:47:33;27.0;;;16.4;;
64022;SDS011;50264;52.088;5.296;2022-12-18T07:49:10;23.2;;;17.0;;
64022;SDS011;50264;52.088;5.296;2022-12-18T07:50:47;24.9;;;16.4;;
64022;SDS011;50264;52.088;5.296;2022-12-18T07:52:22;24.7;;;16.2;;
64022;SDS011;50264;52.088;5.296;2022-12-18T07:55:35;25.7;;;16.5;;
64022;SDS011;50264;52.088;5.296;2022-12-18T07:57:11;23.2;;;16.11;;
64022;SDS011;50264;52.088;5.296;2022-12-18T07:58:47;24.2;;;16.0;;
64022;SDS011;50264;52.088;5.296;2022-12-18T08:02:00;24.9;;;15.7;;
64022;SDS011;50264;52.088;5.296;2022-12-18T08:03:38;24.1;;;15.7;;
64022;SDS011;50264;52.088;5.296;2022-12-18T08:05:14;26.3;;;16.2;;
64022;SDS011;50264;52.088;5.296;2022-12-18T08:08:27;22.8;;;15.7;;
64022;SDS011;50264;52.088;5.296;2022-12-18T08:10:04;28.4;;;15.7;;
64022;SDS011;50264;52.088;5.296;2022-12-18T08:11:41;27.3;;;15.3;;
64022;SDS011;50264;52.088;5.296;2022-12-18T08:13:18;27.1;;;15.7;;
64022;SDS011;50264;52.088;5.296;2022-12-18T08:16:31;27.5;;;14.9;;
64022;SDS011;50264;52.088;5.296;2022-12-18T08:18:07;26.4;;;15.8;;
64022;SDS011;50264;52.088;5.296;2022-12-18T08:19:43;25.6;;;16.11;;
64022;SDS011;50264;52.088;5.296;2022-12-18T08:22:58;24.5;;;16.11;;
64022;SDS011;50264;52.088;5.296;2022-12-18T08:24:34;22.9;;;15.6;;
64022;SDS011;50264;52.088;5.296;2022-12-18T08:26:10;22.7;;;14.7;;
64022;SDS011;50264;52.088;5.296;2022-12-18T08:29:23;24.0;;;15.4;;
64022;SDS011;50264;52.088;5.296;2022-12-18T08:31:00;25.3;;;16.11;;
64022;SDS011;50264;52.088;5.296;2022-12-18T08:32:36;25.0;;;15.5;;
64022;SDS011;50264;52.088;5.296;2022-12-18T08:34:11;26.5;;;15.4;;
64022;SDS011;50264;52.088;5.296;2022-12-18T08:37:24;26.7;;;16.2;;
64022;SDS011;50264;52.088;5.296;2022-12-18T08:39:00;23.5;;;15.4;;
64022;SDS011;50264;52.088;5.296;2022-12-18T08:40:36;20.41;;;15.8;;
64022;SDS011;50264;52.088;5.296;2022-12-18T08:43:48;27.8;;;16.4;;
64022;SDS011;50264;52.088;5.296;2022-12-18T08:45:25;21.9;;;15.8;;
64022;SDS011;50264;52.088;5.296;2022-12-18T08:47:01;26.2;;;16.11;;
64022;SDS011;50264;52.088;5.296;2022-12-18T08:50:13;32.4;;;17.2;;
64022;SDS011;50264;52.088;5.296;2022-12-18T08:51:53;23.4;;;15.5;;
64022;SDS011;50264;52.088;5.296;2022-12-18T08:53:30;22.0;;;15.8;;
64022;SDS011;50264;52.088;5.296;2022-12-18T08:55:07;19.91;;;15.5;;
64022;SDS011;50264;52.088;5.296;2022-12-18T08:58:20;24.1;;;15.9;;
64022;SDS011;50264;52.088;5.296;2022-12-18T08:59:57;22.8;;;15.7;;
64022;SDS011;50264;52.088;5.296;2022-12-18T09:01:33;26.3;;;16.2;;
64022;SDS011;50264;52.088;5.296;2022-12-18T09:04:47;22.2;;;15.8;;
64022;SDS011;50264;52.088;5.296;2022-12-18T09:06:24;24.6;;;16.2;;
64022;SDS011;50264;52.088;5.296;2022-12-18T09:08:00;22.5;;;15.8;;
64022;SDS011;50264;52.088;5.296;2022-12-18T09:11:13;27.9;;;15.8;;
64022;SDS011;50264;52.088;5.296;2022-12-18T09:12:53;26.3;;;16.2;;
64022;SDS011;50264;52.088;5.296;2022-12-18T09:14:30;26.8;;;16.5;;
64022;SDS011;50264;52.088;5.296;2022-12-18T09:16:06;27.5;;;16.2;;
64022;SDS011;50264;52.088;5.296;2022-12-18T09:19:19;26.7;;;15.6;;
64022;SDS011;50264;52.088;5.296;2022-12-18T09:20:55;25.7;;;15.7;;
64022;SDS011;50264;52.088;5.296;2022-12-18T09:22:31;20.11;;;15.1;;
64022;SDS011;50264;52.088;5.296;2022-12-18T09:25:48;23.7;;;14.5;;
64022;SDS011;50264;52.088;5.296;2022-12-18T09:27:25;22.1;;;15.6;;
64022;SDS011;50264;52.088;5.296;2022-12-18T09:29:01;20.9;;;15.0;;
64022;SDS011;50264;52.088;5.296;2022-12-18T09:30:38;21.6;;;15.2;;
64022;SDS011;50264;52.088;5.296;2022-12-18T09:33:54;24.4;;;15.5;;
64022;SDS011;50264;52.088;5.296;2022-12-18T09:35:30;23.5;;;15.1;;
64022;SDS011;50264;52.088;5.296;2022-12-18T09:37:07;22.6;;;15.3;;
64022;SDS011;50264;52.088;5.296;2022-12-18T09:40:21;25.9;;;15.9;;
64022;SDS011;50264;52.088;5.296;2022-12-18T09:42:01;21.2;;;15.0;;
64022;SDS011;50264;52.088;5.296;2022-12-18T09:43:40;23.4;;;15.2;;
64022;SDS011;50264;52.088;5.296;2022-12-18T09:45:21;20.11;;;13.8;;
64022;SDS011;50264;52.088;5.296;2022-12-18T09:48:46;29.1;;;15.3;;
64022;SDS011;50264;52.088;5.296;2022-12-18T09:50:26;24.8;;;14.0;;
64022;SDS011;50264;52.088;5.296;2022-12-18T09:52:09;24.5;;;14.2;;
64022;SDS011;50264;52.088;5.296;2022-12-18T09:53:52;23.1;;;14.1;;
64022;SDS011;50264;52.088;5.296;2022-12-18T09:57:14;27.4;;;15.1;;
64022;SDS011;50264;52.088;5.296;2022-12-18T09:58:55;20.11;;;13.7;;
64022;SDS011;50264;52.088;5.296;2022-12-18T10:00:34;20.6;;;14.3;;
64022;SDS011;50264;52.088;5.296;2022-12-18T10:02:12;19.61;;;14.1;;
64022;SDS011;50264;52.088;5.296;2022-12-18T10:05:32;20.2;;;13.8;;
64022;SDS011;50264;52.088;5.296;2022-12-18T10:07:23;22.8;;;14.9;;
64022;SDS011;50264;52.088;5.296;2022-12-18T10:09:11;21.4;;;15.4;;
64022;SDS011;50264;52.088;5.296;2022-12-18T10:10:57;23.1;;;14.8;;
64022;SDS011;50264;52.088;5.296;2022-12-18T10:12:45;20.5;;;14.5;;
64022;SDS011;50264;52.088;5.296;2022-12-18T10:16:17;19.7;;;13.8;;
64022;SDS011;50264;52.088;5.296;2022-12-18T10:18:03;21.1;;;15.0;;
64022;SDS011;50264;52.088;5.296;2022-12-18T10:19:58;19.2;;;13.4;;
64022;SDS011;50264;52.088;5.296;2022-12-18T10:21:39;16.9;;;12.9;;
64022;SDS011;50264;52.088;5.296;2022-12-18T10:23:25;18.0;;;13.0;;
64022;SDS011;50264;52.088;5.296;2022-12-18T10:25:14;19.7;;;13.5;;
64022;SDS011;50264;52.088;5.296;2022-12-18T10:28:45;21.0;;;13.4;;
64022;SDS011;50264;52.088;5.296;2022-12-18T10:30:23;18.3;;;13.6;;
64022;SDS011;50264;52.088;5.296;2022-12-18T10:32:01;20.0;;;13.5;;
64022;SDS011;50264;52.088;5.296;2022-12-18T10:33:37;19.2;;;14.3;;
64022;SDS011;50264;52.088;5.296;2022-12-18T10:36:55;18.11;;;13.1;;
64022;SDS011;50264;52.088;5.296;2022-12-18T10:38:32;17.2;;;13.0;;
64022;SDS011;50264;52.088;5.296;2022-12-18T10:40:10;19.2;;;13.0;;
64022;SDS011;50264;52.088;5.296;2022-12-18T10:43:25;21.5;;;13.7;;
64022;SDS011;50264;52.088;5.296;2022-12-18T10:45:08;19.91;;;13.4;;
64022;SDS011;50264;52.088;5.296;2022-12-18T10:46:50;18.3;;;14.0;;
64022;SDS011;50264;52.088;5.296;2022-12-18T10:48:30;18.11;;;12.5;;
64022;SDS011;50264;52.088;5.296;2022-12-18T10:52:04;20.41;;;13.3;;
64022;SDS011;50264;52.088;5.296;2022-12-18T10:53:44;20.2;;;13.9;;
64022;SDS011;50264;52.088;5.296;2022-12-18T10:55:31;15.9;;;12.1;;
64022;SDS011;50264;52.088;5.296;2022-12-18T10:57:19;18.11;;;12.8;;
64022;SDS011;50264;52.088;5.296;2022-12-18T10:59:07;22.3;;;14.4;;
64022;SDS011;50264;52.088;5.296;2022-12-18T11:00:46;20.2;;;13.2;;
64022;SDS011;50264;52.088;5.296;2022-12-18T11:04:17;22.6;;;13.0;;
64022;SDS011;50264;52.088;5.296;2022-12-18T11:06:01;17.91;;;12.9;;
64022;SDS011;50264;52.088;5.296;2022-12-18T11:07:46;21.1;;;13.2;;
64022;SDS011;50264;52.088;5.296;2022-12-18T11:09:24;18.41;;;12.3;;
64022;SDS011;50264;52.088;5.296;2022-12-18T11:12:43;19.11;;;12.5;;
64022;SDS011;50264;52.088;5.296;2022-12-18T11:14:21;18.11;;;12.7;;
64022;SDS011;50264;52.088;5.296;2022-12-18T11:16:00;16.0;;;12.1;;
64022;SDS011;50264;52.088;5.296;2022-12-18T11:17:36;20.3;;;12.3;;
64022;SDS011;50264;52.088;5.296;2022-12-18T11:21:01;17.0;;;12.4;;
64022;SDS011;50264;52.088;5.296;2022-12-18T11:22:44;23.8;;;14.1;;
64022;SDS011;50264;52.088;5.296;2022-12-18T11:24:33;22.0;;;13.3;;
64022;SDS011;50264;52.088;5.296;2022-12-18T11:26:12;20.5;;;13.8;;
64022;SDS011;50264;52.088;5.296;2022-12-18T11:27:50;16.9;;;13.1;;
64022;SDS011;50264;52.088;5.296;2022-12-18T11:31:22;17.7;;;12.6;;
64022;SDS011;50264;52.088;5.296;2022-12-18T11:33:02;21.1;;;13.4;;
64022;SDS011;50264;52.088;5.296;2022-12-18T11:34:42;21.1;;;13.1;;
64022;SDS011;50264;52.088;5.296;2022-12-18T11:36:23;20.0;;;12.6;;
64022;SDS011;50264;52.088;5.296;2022-12-18T11:39:49;17.91;;;13.1;;
64022;SDS011;50264;52.088;5.296;2022-12-18T11:41:32;22.5;;;13.3;;
64022;SDS011;50264;52.088;5.296;2022-12-18T11:43:17;19.2;;;13.0;;
64022;SDS011;50264;52.088;5.296;2022-12-18T11:45:03;16.5;;;11.6;;
64022;SDS011;50264;52.088;5.296;2022-12-18T11:46:59;15.2;;;11.6;;
64022;SDS011;50264;52.088;5.296;2022-12-18T11:50:23;18.3;;;11.7;;
64022;SDS011;50264;52.088;5.296;2022-12-18T11:52:04;17.7;;;12.2;;
64022;SDS011;50264;52.088;5.296;2022-12-18T11:53:51;16.9;;;12.0;;
64022;SDS011;50264;52.088;5.296;2022-12-18T11:55:30;16.7;;;12.0;;
64022;SDS011;50264;52.088;5.296;2022-12-18T11:57:26;16.4;;;11.4;;
64022;SDS011;50264;52.088;5.296;2022-12-18T12:01:01;16.0;;;11.9;;
64022;SDS011;50264;52.088;5.296;2022-12-18T12:03:14;17.2;;;12.3;;
64022;SDS011;50264;52.088;5.296;2022-12-18T12:06:36;21.1;;;12.4;;
64022;SDS011;50264;52.088;5.296;2022-12-18T12:08:24;18.0;;;13.3;;
64022;SDS011;50264;52.088;5.296;2022-12-18T12:12:10;17.91;;;12.0;;
64022;SDS011;50264;52.088;5.296;2022-12-18T12:14:06;15.7;;;11.7;;
64022;SDS011;50264;52.088;5.296;2022-12-18T12:16:11;23.9;;;12.7;;
64022;SDS011;50264;52.088;5.296;2022-12-18T12:19:43;17.41;;;12.7;;
64022;SDS011;50264;52.088;5.296;2022-12-18T12:21:28;22.7;;;12.1;;
64022;SDS011;50264;52.088;5.296;2022-12-18T12:23:17;19.5;;;12.1;;
64022;SDS011;50264;52.088;5.296;2022-12-18T12:25:14;21.4;;;11.7;;
64022;SDS011;50264;52.088;5.296;2022-12-18T12:27:00;16.8;;;11.2;;
64022;SDS011;50264;52.088;5.296;2022-12-18T12:28:57;16.5;;;11.9;;
64022;SDS011;50264;52.088;5.296;2022-12-18T12:30:43;17.41;;;11.9;;
64022;SDS011;50264;52.088;5.296;2022-12-18T12:34:26;14.1;;;11.9;;
64022;SDS011;50264;52.088;5.296;2022-12-18T12:36:11;17.8;;;12.1;;
64022;SDS011;50264;52.088;5.296;2022-12-18T12:38:01;17.41;;;11.5;;
64022;SDS011;50264;52.088;5.296;2022-12-18T12:39:45;18.91;;;12.6;;